Time,TemperatureF,DewpointF,PressureIn,WindDirection,WindDirectionDegrees,WindSpeedMPH,WindSpeedGustMPH,Humidity,HourlyPrecipIn,Conditions,Clouds,dailyrainin,SolarRadiationWatts/m^2,SoftwareType,DateUTC
2013-02-15 00:00:00,51.5,42.0,30.12,North,360,3.5,3.5,70,0.00,,SKC,0.00,0.0,WeatherDisplay:10.37,2013-02-15 08:00:00,
2013-02-15 00:05:00,51.6,41.8,30.12,North,360,3.5,3.5,69,0.00,,SKC,0.00,0.0,WeatherDisplay:10.37,2013-02-15 08:05:00,
2013-02-15 00:10:00,51.7,41.9,30.12,North,360,3.5,3.5,69,0.00,,SKC,0.00,0.0,WeatherDisplay:10.37,2013-02-15 08:10:00,
2013-02-15 00:15:00,51.4,41.9,30.12,North,360,2.3,2.3,70,0.00,,SKC,0.00,0.0,WeatherDisplay:10.37,2013-02-15 08:15:00,
2013-02-15 00:20:00,51.2,41.7,30.12,North,360,1.0,1.0,70,0.00,,SKC,0.00,0.0,WeatherDisplay:10.37,2013-02-15 08:20:00,
2013-02-15 00:25:00,51.3,41.8,30.12,North,360,2.3,2.3,70,0.00,,SKC,0.00,0.0,WeatherDisplay:10.37,2013-02-15 08:25:00,
2013-02-15 00:30:00,51.1,41.7,30.12,North,360,1.2,1.2,70,0.00,,SKC,0.00,0.0,WeatherDisplay:10.37,2013-02-15 08:30:00,
2013-02-15 00:35:00,50.6,41.5,30.12,North,360,1.2,1.2,71,0.00,,SKC,0.00,0.0,WeatherDisplay:10.37,2013-02-15 08:35:00,
2013-02-15 00:40:00,50.1,41.4,30.13,North,360,3.5,3.5,72,0.00,,SKC,0.00,0.0,WeatherDisplay:10.37,2013-02-15 08:40:00,
2013-02-15 00:45:00,49.6,41.7,30.13,North,360,3.5,3.5,74,0.00,,SKC,0.00,0.0,WeatherDisplay:10.37,2013-02-15 08:45:00,
2013-02-15 00:50:00,49.1,41.2,30.13,North,360,3.5,3.5,74,0.00,,SKC,0.00,0.0,WeatherDisplay:10.37,2013-02-15 08:50:00,
2013-02-15 00:55:00,48.6,41.4,30.12,North,360,3.5,3.5,76,0.00,,SKC,0.00,0.0,WeatherDisplay:10.37,2013-02-15 08:55:00,
2013-02-15 01:00:00,48.3,41.4,30.12,North,360,2.3,2.3,77,0.00,,SKC,0.00,0.0,WeatherDisplay:10.37,2013-02-15 09:00:00,
2013-02-15 01:05:00,48.2,41.3,30.12,North,360,2.3,2.3,77,0.00,,SKC,0.00,0.0,WeatherDisplay:10.37,2013-02-15 09:05:00,
2013-02-15 01:10:00,48.1,41.6,30.13,North,360,2.3,2.3,78,0.00,,SKC,0.00,0.0,WeatherDisplay:10.37,2013-02-15 09:10:00,
2013-02-15 01:15:00,47.9,41.4,30.13,North,360,3.5,3.5,78,0.00,,SKC,0.00,0.0,WeatherDisplay:10.37,2013-02-15 09:15:00,
2013-02-15 01:20:00,47.7,41.2,30.13,North,360,3.5,3.5,78,0.00,,SKC,0.00,0.0,WeatherDisplay:10.37,2013-02-15 09:20:00,
2013-02-15 01:25:00,47.5,41.3,30.13,North,360,3.5,3.5,79,0.00,,SKC,0.00,0.0,WeatherDisplay:10.37,2013-02-15 09:25:00,
2013-02-15 01:30:00,47.3,41.1,30.13,North,360,3.5,3.5,79,0.00,,SKC,0.00,0.0,WeatherDisplay:10.37,2013-02-15 09:30:00,
2013-02-15 01:35:00,47.1,40.9,30.13,North,360,3.5,3.5,79,0.00,,SKC,0.00,0.0,WeatherDisplay:10.37,2013-02-15 09:35:00,
2013-02-15 01:40:00,47.0,40.8,30.13,North,360,4.0,4.0,79,0.00,,SKC,0.00,0.0,WeatherDisplay:10.37,2013-02-15 09:40:00,
2013-02-15 01:45:00,46.8,40.6,30.13,North,360,3.5,3.5,79,0.00,,SKC,0.00,0.0,WeatherDisplay:10.37,2013-02-15 09:45:00,
2013-02-15 01:50:00,46.6,40.8,30.13,North,360,4.6,4.6,80,0.00,,SKC,0.00,0.0,WeatherDisplay:10.37,2013-02-15 09:50:00,
2013-02-15 01:55:00,46.6,40.8,30.13,North,360,3.5,3.5,80,0.00,,SKC,0.00,0.0,WeatherDisplay:10.37,2013-02-15 09:55:00,
2013-02-15 02:00:00,46.5,40.7,30.13,North,360,5.8,5.8,80,0.00,,SKC,0.00,0.0,WeatherDisplay:10.37,2013-02-15 10:00:00,
2013-02-15 02:05:00,47.0,40.8,30.13,North,360,6.9,6.9,79,0.00,,SKC,0.00,0.0,WeatherDisplay:10.37,2013-02-15 10:05:00,
2013-02-15 02:10:00,47.1,40.6,30.12,North,9,5.0,5.0,78,0.00,,SKC,0.00,0.0,WeatherDisplay:10.37,2013-02-15 10:10:00,
2013-02-15 02:15:00,47.1,40.6,30.12,North,5,5.8,5.8,78,0.00,,SKC,0.00,0.0,WeatherDisplay:10.37,2013-02-15 10:15:00,
2013-02-15 02:20:00,47.2,40.7,30.12,North,5,7.0,7.0,78,0.00,,SKC,0.00,0.0,WeatherDisplay:10.37,2013-02-15 10:20:00,
2013-02-15 02:25:00,47.4,40.9,30.12,North,5,6.9,6.9,78,0.00,,SKC,0.00,0.0,WeatherDisplay:10.37,2013-02-15 10:25:00,
2013-02-15 02:30:00,47.4,40.6,30.12,NNE,19,4.6,4.9,77,0.00,,SKC,0.00,0.0,WeatherDisplay:10.37,2013-02-15 10:30:00,
2013-02-15 02:35:00,47.8,40.6,30.12,NNE,21,5.8,5.8,76,0.00,,SKC,0.00,0.0,WeatherDisplay:10.37,2013-02-15 10:35:00,
2013-02-15 02:40:00,48.2,41.7,30.12,North,360,8.1,8.1,78,0.00,,SKC,0.00,0.0,WeatherDisplay:10.37,2013-02-15 10:40:00,
2013-02-15 02:45:00,48.2,40.6,30.12,NNE,22,4.6,4.6,75,0.00,,SKC,0.00,0.0,WeatherDisplay:10.37,2013-02-15 10:45:00,
2013-02-15 02:50:00,48.1,40.5,30.12,NNE,31,3.5,3.5,75,0.00,,SKC,0.00,0.0,WeatherDisplay:10.37,2013-02-15 10:50:00,
2013-02-15 02:55:00,48.1,40.5,30.11,NNE,21,4.0,4.0,75,0.00,,SKC,0.00,0.0,WeatherDisplay:10.37,2013-02-15 10:55:00,
2013-02-15 03:00:00,48.0,40.5,30.11,North,349,4.6,4.6,75,0.00,,SKC,0.00,0.0,WeatherDisplay:10.37,2013-02-15 11:00:00,
2013-02-15 03:05:00,48.0,40.5,30.11,North,360,4.6,4.6,75,0.00,,SKC,0.00,0.0,WeatherDisplay:10.37,2013-02-15 11:05:00,
2013-02-15 03:10:00,47.8,40.3,30.10,North,355,3.5,3.5,75,0.00,,SKC,0.00,0.0,WeatherDisplay:10.37,2013-02-15 11:10:00,
2013-02-15 03:15:00,47.6,40.1,30.10,North,355,3.5,3.5,75,0.00,,SKC,0.00,0.0,WeatherDisplay:10.37,2013-02-15 11:15:00,
2013-02-15 03:20:00,47.5,40.0,30.10,North,355,3.5,3.5,75,0.00,,SKC,0.00,0.0,WeatherDisplay:10.37,2013-02-15 11:20:00,
2013-02-15 03:25:00,47.4,39.9,30.10,North,355,3.5,3.5,75,0.00,,SKC,0.00,0.0,WeatherDisplay:10.37,2013-02-15 11:25:00,
2013-02-15 03:30:00,47.3,39.8,30.10,North,355,5.0,5.0,75,0.00,,SKC,0.00,0.0,WeatherDisplay:10.37,2013-02-15 11:30:00,
2013-02-15 03:35:00,46.9,39.7,30.10,North,355,4.0,4.0,76,0.00,,SKC,0.00,0.0,WeatherDisplay:10.37,2013-02-15 11:35:00,
2013-02-15 03:40:00,46.9,39.7,30.09,North,5,5.8,5.8,76,0.00,,SKC,0.00,0.0,WeatherDisplay:10.37,2013-02-15 11:40:00,
2013-02-15 03:45:00,47.0,39.5,30.09,North,5,4.6,4.6,75,0.00,,SKC,0.00,0.0,WeatherDisplay:10.37,2013-02-15 11:45:00,
2013-02-15 03:50:00,47.0,39.5,30.09,North,5,2.3,2.3,75,0.00,,SKC,0.00,0.0,WeatherDisplay:10.37,2013-02-15 11:50:00,
2013-02-15 03:55:00,47.1,39.6,30.09,NNE,33,3.5,3.5,75,0.00,,SKC,0.00,0.0,WeatherDisplay:10.37,2013-02-15 11:55:00,
2013-02-15 04:00:00,47.6,39.7,30.09,NE,39,4.6,4.6,74,0.00,,SKC,0.00,0.0,WeatherDisplay:10.37,2013-02-15 12:00:00,
2013-02-15 04:05:00,47.7,39.5,30.09,NE,43,2.3,2.3,73,0.00,,SKC,0.00,0.0,WeatherDisplay:10.37,2013-02-15 12:05:00,
2013-02-15 04:10:00,47.6,39.4,30.09,NE,44,3.5,3.5,73,0.00,,SKC,0.00,0.0,WeatherDisplay:10.37,2013-02-15 12:10:00,
2013-02-15 04:15:00,47.8,39.6,30.09,NE,43,3.5,3.5,73,0.00,,SKC,0.00,0.0,WeatherDisplay:10.37,2013-02-15 12:15:00,
2013-02-15 04:20:00,48.2,39.6,30.09,NE,46,6.0,6.0,72,0.00,,SKC,0.00,0.0,WeatherDisplay:10.37,2013-02-15 12:20:00,
2013-02-15 04:25:00,48.7,39.7,30.10,NE,44,4.6,4.6,71,0.00,,SKC,0.00,0.0,WeatherDisplay:10.37,2013-02-15 12:25:00,
2013-02-15 04:30:00,48.8,39.4,30.10,NE,44,3.5,3.5,70,0.00,,SKC,0.00,0.0,WeatherDisplay:10.37,2013-02-15 12:30:00,
2013-02-15 04:35:00,48.7,39.4,30.10,NE,44,4.6,4.6,70,0.00,,SKC,0.00,0.0,WeatherDisplay:10.37,2013-02-15 12:35:00,
2013-02-15 04:41:00,48.4,39.4,30.10,NNE,30,3.5,3.5,71,0.00,,SKC,0.00,0.0,WeatherDisplay:10.37,2013-02-15 12:41:00,
2013-02-15 04:46:00,48.3,39.3,30.10,NNE,28,3.5,3.5,71,0.00,,SKC,0.00,0.0,WeatherDisplay:10.37,2013-02-15 12:46:00,
2013-02-15 04:51:00,47.9,39.3,30.10,NNE,28,2.3,2.3,72,0.00,,SKC,0.00,0.0,WeatherDisplay:10.37,2013-02-15 12:51:00,
2013-02-15 04:56:00,47.7,39.1,30.10,NNE,29,3.5,3.5,72,0.00,,SKC,0.00,0.0,WeatherDisplay:10.37,2013-02-15 12:56:00,
2013-02-15 05:01:00,47.4,39.2,30.10,NNE,28,3.5,3.5,73,0.00,,SKC,0.00,0.0,WeatherDisplay:10.37,2013-02-15 13:01:00,
2013-02-15 05:06:00,47.7,39.1,30.10,NNE,29,3.5,3.5,72,0.00,,SKC,0.00,0.0,WeatherDisplay:10.37,2013-02-15 13:06:00,
2013-02-15 05:11:00,47.7,39.1,30.10,NNE,27,5.8,5.8,72,0.00,,SKC,0.00,0.0,WeatherDisplay:10.37,2013-02-15 13:11:00,
2013-02-15 05:16:00,47.2,39.0,30.10,NNE,27,3.5,3.5,73,0.00,,SKC,0.00,0.0,WeatherDisplay:10.37,2013-02-15 13:16:00,
2013-02-15 05:21:00,46.9,39.0,30.10,NNE,27,3.5,3.5,74,0.00,,SKC,0.00,0.0,WeatherDisplay:10.37,2013-02-15 13:21:00,
2013-02-15 05:26:00,46.8,38.9,30.10,NNE,27,3.5,3.5,74,0.00,,SKC,0.00,0.0,WeatherDisplay:10.37,2013-02-15 13:26:00,
2013-02-15 05:31:00,46.4,38.9,30.10,NNE,27,2.3,2.3,75,0.00,,SKC,0.00,0.0,WeatherDisplay:10.37,2013-02-15 13:31:00,
2013-02-15 05:36:00,46.1,39.0,30.10,NNE,27,3.5,3.5,76,0.00,,SKC,0.00,0.0,WeatherDisplay:10.37,2013-02-15 13:36:00,
2013-02-15 05:41:00,45.9,38.8,30.10,NNE,27,3.5,3.5,76,0.00,,SKC,0.00,0.0,WeatherDisplay:10.37,2013-02-15 13:41:00,
2013-02-15 05:46:00,45.5,38.7,30.10,NNE,27,3.5,3.5,77,0.00,,SKC,0.00,0.0,WeatherDisplay:10.37,2013-02-15 13:46:00,
2013-02-15 05:51:00,45.2,38.4,30.10,NNE,27,3.5,3.5,77,0.00,,SKC,0.00,0.0,WeatherDisplay:10.37,2013-02-15 13:51:00,
2013-02-15 05:56:00,45.0,38.6,30.10,NNE,27,2.3,2.3,78,0.00,,SKC,0.00,0.0,WeatherDisplay:10.37,2013-02-15 13:56:00,
2013-02-15 06:01:00,44.7,38.3,30.10,NNE,27,3.5,3.5,78,0.00,,SKC,0.00,0.0,WeatherDisplay:10.37,2013-02-15 14:01:00,
2013-02-15 06:06:00,44.7,38.6,30.10,NNE,27,3.5,3.5,79,0.00,,SKC,0.00,0.0,WeatherDisplay:10.37,2013-02-15 14:06:00,
2013-02-15 06:11:00,44.9,38.8,30.10,NNE,27,2.3,2.3,79,0.00,,SKC,0.00,0.0,WeatherDisplay:10.37,2013-02-15 14:11:00,
2013-02-15 06:16:00,45.1,38.6,30.10,NNE,27,3.5,3.5,78,0.00,,SKC,0.00,0.0,WeatherDisplay:10.37,2013-02-15 14:16:00,
2013-02-15 06:21:00,45.4,38.6,30.10,NNE,27,2.3,2.3,77,0.00,,SKC,0.00,0.0,WeatherDisplay:10.37,2013-02-15 14:21:00,
2013-02-15 06:26:00,45.4,38.6,30.11,NNE,27,3.5,3.5,77,0.00,OVC,SKC,0.00,0.0,WeatherDisplay:10.37,2013-02-15 14:26:00,
2013-02-15 06:31:00,45.1,38.6,30.11,NNE,27,3.5,3.5,78,0.00,OVC,SKC,0.00,0.0,WeatherDisplay:10.37,2013-02-15 14:31:00,
2013-02-15 06:36:00,44.9,38.5,30.11,NNE,27,2.3,2.3,78,0.00,OVC,SKC,0.00,0.0,WeatherDisplay:10.37,2013-02-15 14:36:00,
2013-02-15 06:41:00,44.8,38.7,30.12,NNE,27,2.3,2.3,79,0.00,OVC,SKC,0.00,0.0,WeatherDisplay:10.37,2013-02-15 14:41:00,
2013-02-15 06:46:00,44.7,38.3,30.12,NNE,27,3.5,3.5,78,0.00,OVC,SKC,0.00,0.0,WeatherDisplay:10.37,2013-02-15 14:46:00,
2013-02-15 06:51:00,44.5,38.4,30.12,NNE,27,3.5,3.5,79,0.00,OVC,SKC,0.00,0.0,WeatherDisplay:10.37,2013-02-15 14:51:00,
2013-02-15 06:56:00,44.3,38.2,30.12,NNE,27,2.3,2.3,79,0.00,OVC,SKC,0.00,5.0,WeatherDisplay:10.37,2013-02-15 14:56:00,
2013-02-15 07:01:00,44.1,38.3,30.12,NNE,27,3.5,3.5,80,0.00,OVC,SKC,0.00,9.0,WeatherDisplay:10.37,2013-02-15 15:01:00,
2013-02-15 07:06:00,44.0,38.2,30.12,NNE,27,2.3,2.3,80,0.00,OVC,SKC,0.00,14.0,WeatherDisplay:10.37,2013-02-15 15:06:00,
2013-02-15 07:11:00,44.1,38.3,30.13,NNE,27,3.5,3.5,80,0.00,OVC,SKC,0.00,19.0,WeatherDisplay:10.37,2013-02-15 15:11:00,
2013-02-15 07:16:00,44.2,38.4,30.13,NNE,27,2.3,2.3,80,0.00,OVC,SKC,0.00,26.0,WeatherDisplay:10.37,2013-02-15 15:16:00,
2013-02-15 07:21:00,44.3,38.5,30.13,NNE,27,3.5,3.5,80,0.00,OVC,SKC,0.00,37.0,WeatherDisplay:10.37,2013-02-15 15:21:00,
2013-02-15 07:26:00,44.6,38.8,30.13,NNE,27,3.5,3.5,80,0.00,OVC,SKC,0.00,47.0,WeatherDisplay:10.37,2013-02-15 15:26:00,
2013-02-15 07:31:00,45.0,38.9,30.13,NNE,27,1.2,1.2,79,0.00,OVC,SKC,0.00,60.0,WeatherDisplay:10.37,2013-02-15 15:31:00,
2013-02-15 07:36:00,45.7,39.6,30.13,NNE,27,3.5,3.5,79,0.00,OVC,SKC,0.00,70.0,WeatherDisplay:10.37,2013-02-15 15:36:00,
2013-02-15 07:41:00,46.4,39.6,30.13,NNE,27,2.3,2.3,77,0.00,OVC,SKC,0.00,86.0,WeatherDisplay:10.37,2013-02-15 15:41:00,
2013-02-15 07:46:00,46.9,39.7,30.13,NNE,27,1.2,1.2,76,0.00,OVC,SKC,0.00,102.0,WeatherDisplay:10.37,2013-02-15 15:46:00,
2013-02-15 07:51:00,47.6,40.1,30.13,NNE,27,1.2,1.2,75,0.00,OVC,SKC,0.00,118.0,WeatherDisplay:10.37,2013-02-15 15:51:00,
2013-02-15 07:56:00,48.2,40.3,30.14,NNE,27,3.5,3.5,74,0.00,OVC,SKC,0.00,135.0,WeatherDisplay:10.37,2013-02-15 15:56:00,
2013-02-15 08:01:00,48.9,40.6,30.14,NNE,27,1.2,1.2,73,0.00,OVC,SKC,0.00,149.0,WeatherDisplay:10.37,2013-02-15 16:01:00,
2013-02-15 08:06:00,50.0,41.0,30.14,NNE,27,2.3,2.3,71,0.00,OVC,SKC,0.00,165.0,WeatherDisplay:10.37,2013-02-15 16:06:00,
2013-02-15 08:11:00,51.0,41.9,30.15,NNE,27,3.5,3.5,71,0.00,OVC,SKC,0.00,176.0,WeatherDisplay:10.37,2013-02-15 16:11:00,
2013-02-15 08:16:00,51.9,43.5,30.15,East,101,1.2,0.0,73,0.00,OVC,SKC,0.00,193.0,WeatherDisplay:10.37,2013-02-15 16:16:00,
2013-02-15 08:21:00,52.6,43.1,30.15,East,101,2.0,2.0,70,0.00,OVC,SKC,0.00,209.0,WeatherDisplay:10.37,2013-02-15 16:21:00,
2013-02-15 08:26:00,53.0,43.1,30.15,ESE,121,4.0,4.0,69,0.00,OVC,SKC,0.00,225.0,WeatherDisplay:10.37,2013-02-15 16:26:00,
2013-02-15 08:31:00,52.5,43.7,30.15,ESE,121,1.2,1.2,72,0.00,OVC,SKC,0.00,241.0,WeatherDisplay:10.37,2013-02-15 16:31:00,
2013-02-15 08:36:00,52.1,42.6,30.15,ESE,121,3.5,3.5,70,0.00,OVC,SKC,0.00,257.0,WeatherDisplay:10.37,2013-02-15 16:36:00,
2013-02-15 08:41:00,52.2,43.4,30.15,ESE,121,2.3,2.3,72,0.00,OVC,SKC,0.00,271.0,WeatherDisplay:10.37,2013-02-15 16:41:00,
2013-02-15 08:46:00,52.5,43.7,30.15,ESE,121,1.2,1.2,72,0.00,OVC,SKC,0.00,285.0,WeatherDisplay:10.37,2013-02-15 16:46:00,
2013-02-15 08:51:00,53.0,43.1,30.15,ESE,121,3.5,3.5,69,0.00,OVC,SKC,0.00,301.0,WeatherDisplay:10.37,2013-02-15 16:51:00,
2013-02-15 08:56:00,53.4,43.1,30.15,ESE,121,2.3,2.3,68,0.00,OVC,SKC,0.00,315.0,WeatherDisplay:10.37,2013-02-15 16:56:00,
2013-02-15 09:01:00,53.7,43.0,30.15,ESE,119,4.0,4.0,67,0.00,OVC,SKC,0.00,330.0,WeatherDisplay:10.37,2013-02-15 17:01:00,
2013-02-15 09:06:00,54.0,43.3,30.15,ESE,119,2.3,2.3,67,0.00,OVC,SKC,0.00,346.0,WeatherDisplay:10.37,2013-02-15 17:06:00,
2013-02-15 09:11:00,54.3,43.6,30.15,ESE,119,2.3,2.3,67,0.00,OVC,SKC,0.00,360.0,WeatherDisplay:10.37,2013-02-15 17:11:00,
2013-02-15 09:16:00,55.0,43.4,30.15,ESE,119,1.2,1.2,65,0.00,OVC,SKC,0.00,376.0,WeatherDisplay:10.37,2013-02-15 17:16:00,
2013-02-15 09:21:00,56.0,44.0,30.15,ESE,119,2.3,2.3,64,0.00,OVC,SKC,0.00,390.0,WeatherDisplay:10.37,2013-02-15 17:21:00,
2013-02-15 09:26:00,56.5,44.9,30.15,ESE,119,4.0,4.0,65,0.00,OVC,SKC,0.00,404.0,WeatherDisplay:10.37,2013-02-15 17:26:00,
2013-02-15 09:31:00,56.4,44.4,30.15,ESE,122,2.3,2.3,64,0.00,OVC,SKC,0.00,417.0,WeatherDisplay:10.37,2013-02-15 17:31:00,
2013-02-15 09:36:00,56.4,45.2,30.15,SE,126,4.6,4.6,66,0.00,OVC,SKC,0.00,431.0,WeatherDisplay:10.37,2013-02-15 17:36:00,
2013-02-15 09:41:00,56.0,46.0,30.15,SE,126,2.3,2.3,69,0.00,OVC,SKC,0.00,443.0,WeatherDisplay:10.37,2013-02-15 17:41:00,
2013-02-15 09:46:00,55.7,45.7,30.15,SE,125,4.0,4.0,69,0.00,OVC,SKC,0.00,457.0,WeatherDisplay:10.37,2013-02-15 17:46:00,
2013-02-15 09:51:00,55.5,44.7,30.15,SE,128,5.8,5.8,67,0.00,OVC,SKC,0.00,469.0,WeatherDisplay:10.37,2013-02-15 17:51:00,
2013-02-15 09:56:00,55.3,45.3,30.15,SE,128,3.5,3.5,69,0.00,OVC,SKC,0.00,482.0,WeatherDisplay:10.37,2013-02-15 17:56:00,
2013-02-15 10:01:00,55.2,46.0,30.15,SE,129,5.0,5.0,71,0.00,OVC,SKC,0.00,489.0,WeatherDisplay:10.37,2013-02-15 18:01:00,
2013-02-15 10:06:00,55.5,47.0,30.15,SE,127,3.5,3.5,73,0.00,OVC,SKC,0.00,503.0,WeatherDisplay:10.37,2013-02-15 18:06:00,
2013-02-15 10:11:00,55.3,46.1,30.15,SE,128,6.0,6.0,71,0.00,OVC,SKC,0.00,515.0,WeatherDisplay:10.37,2013-02-15 18:11:00,
2013-02-15 10:16:00,55.1,45.5,30.15,SE,126,4.6,4.6,70,0.00,OVC,SKC,0.00,526.0,WeatherDisplay:10.37,2013-02-15 18:16:00,
2013-02-15 10:21:00,55.6,44.4,30.16,SE,127,4.6,4.6,66,0.00,OVC,SKC,0.00,536.0,WeatherDisplay:10.37,2013-02-15 18:21:00,
2013-02-15 10:26:00,56.6,44.6,30.16,SE,126,4.6,4.6,64,0.00,OVC,SKC,0.00,547.0,WeatherDisplay:10.37,2013-02-15 18:26:00,
2013-02-15 10:31:00,57.7,44.8,30.16,ESE,105,4.6,4.6,62,0.00,OVC,SKC,0.00,557.0,WeatherDisplay:10.37,2013-02-15 18:31:00,
2013-02-15 10:36:00,58.3,45.3,30.16,ESE,107,3.5,3.5,62,0.00,OVC,SKC,0.00,564.0,WeatherDisplay:10.37,2013-02-15 18:36:00,
2013-02-15 10:41:00,59.2,45.3,30.16,ESE,112,4.6,4.6,60,0.00,OVC,SKC,0.00,575.0,WeatherDisplay:10.37,2013-02-15 18:41:00,
2013-02-15 10:46:00,59.5,45.2,30.16,ESE,115,3.5,3.5,59,0.00,OVC,SKC,0.00,584.0,WeatherDisplay:10.37,2013-02-15 18:46:00,
2013-02-15 10:51:00,60.1,45.3,30.16,ESE,113,5.0,5.0,58,0.00,OVC,SKC,0.00,591.0,WeatherDisplay:10.37,2013-02-15 18:51:00,
2013-02-15 10:56:00,60.8,45.0,30.16,SE,128,4.6,4.6,56,0.00,OVC,SKC,0.00,599.0,WeatherDisplay:10.37,2013-02-15 18:56:00,
2013-02-15 11:01:00,61.8,45.0,30.16,SE,128,2.3,2.3,54,0.00,OVC,SKC,0.00,606.0,WeatherDisplay:10.37,2013-02-15 19:01:00,
2013-02-15 11:06:00,62.8,44.9,30.16,SE,127,3.5,3.5,52,0.00,OVC,SKC,0.00,617.0,WeatherDisplay:10.37,2013-02-15 19:06:00,
2013-02-15 11:11:00,63.4,44.9,30.16,SE,127,2.3,2.3,51,0.00,OVC,SKC,0.00,624.0,WeatherDisplay:10.37,2013-02-15 19:11:00,
2013-02-15 11:16:00,64.7,45.6,30.16,SE,126,2.0,2.0,50,0.00,OVC,SKC,0.00,629.0,WeatherDisplay:10.37,2013-02-15 19:16:00,
2013-02-15 11:21:00,65.3,45.1,30.15,SE,126,3.5,3.5,48,0.00,OVC,SKC,0.00,636.0,WeatherDisplay:10.37,2013-02-15 19:21:00,
2013-02-15 11:26:00,65.6,45.4,30.15,SE,125,2.3,2.3,48,0.00,OVC,SKC,0.00,642.0,WeatherDisplay:10.37,2013-02-15 19:26:00,
2013-02-15 11:31:00,65.9,45.1,30.15,SE,126,2.3,2.3,47,0.00,OVC,SKC,0.00,649.0,WeatherDisplay:10.37,2013-02-15 19:31:00,
2013-02-15 11:36:00,66.3,45.5,30.15,SE,126,1.2,1.2,47,0.00,OVC,SKC,0.00,654.0,WeatherDisplay:10.37,2013-02-15 19:36:00,
2013-02-15 11:41:00,67.1,46.2,30.15,SE,126,1.2,1.2,47,0.00,OVC,SKC,0.00,659.0,WeatherDisplay:10.37,2013-02-15 19:41:00,
2013-02-15 11:46:00,68.2,46.0,30.15,SE,126,2.3,2.3,45,0.00,OVC,SKC,0.00,663.0,WeatherDisplay:10.37,2013-02-15 19:46:00,
2013-02-15 11:51:00,68.4,46.2,30.14,SE,126,2.3,2.3,45,0.00,OVC,SKC,0.00,666.0,WeatherDisplay:10.37,2013-02-15 19:51:00,
2013-02-15 11:56:00,68.8,46.0,30.14,SE,126,2.3,2.3,44,0.00,OVC,SKC,0.00,670.0,WeatherDisplay:10.37,2013-02-15 19:56:00,
2013-02-15 12:01:00,68.9,45.5,30.14,SE,128,3.5,3.5,43,0.00,OVC,SKC,0.00,673.0,WeatherDisplay:10.37,2013-02-15 20:01:00,
2013-02-15 12:06:00,68.6,45.2,30.13,SE,136,3.5,3.5,43,0.00,OVC,SKC,0.00,675.0,WeatherDisplay:10.37,2013-02-15 20:06:00,
2013-02-15 12:11:00,68.7,44.7,30.13,SE,136,2.3,2.3,42,0.00,OVC,SKC,0.00,675.0,WeatherDisplay:10.37,2013-02-15 20:11:00,
2013-02-15 12:16:00,69.2,45.7,30.13,SE,137,2.3,2.3,43,0.00,OVC,SKC,0.00,679.0,WeatherDisplay:10.37,2013-02-15 20:16:00,
2013-02-15 12:21:00,69.7,44.3,30.13,SE,140,5.0,5.0,40,0.00,OVC,SKC,0.00,680.0,WeatherDisplay:10.37,2013-02-15 20:21:00,
2013-02-15 12:26:00,69.7,44.9,30.13,SE,140,4.6,4.6,41,0.00,OVC,SKC,0.00,680.0,WeatherDisplay:10.37,2013-02-15 20:26:00,
2013-02-15 12:31:00,70.1,44.0,30.13,SSE,157,4.6,4.6,39,0.00,OVC,SKC,0.00,680.0,WeatherDisplay:10.37,2013-02-15 20:31:00,
2013-02-15 12:36:00,70.6,42.3,30.13,SSE,157,5.8,5.8,36,0.00,OVC,SKC,0.00,680.0,WeatherDisplay:10.37,2013-02-15 20:36:00,
2013-02-15 12:41:00,70.7,43.8,30.13,SSE,158,4.0,4.0,38,0.00,OVC,SKC,0.00,679.0,WeatherDisplay:10.37,2013-02-15 20:41:00,
2013-02-15 12:46:00,71.0,44.1,30.13,SSE,157,3.5,3.5,38,0.00,OVC,SKC,0.00,679.0,WeatherDisplay:10.37,2013-02-15 20:46:00,
2013-02-15 12:51:00,71.6,42.5,30.13,SSE,153,3.5,3.5,35,0.00,OVC,SKC,0.00,677.0,WeatherDisplay:10.37,2013-02-15 20:51:00,
2013-02-15 12:56:00,71.4,42.3,30.13,SSE,163,5.0,5.0,35,0.00,OVC,SKC,0.00,675.0,WeatherDisplay:10.37,2013-02-15 20:56:00,
2013-02-15 13:01:00,71.3,42.2,30.13,SE,142,6.9,6.9,35,0.00,OVC,SKC,0.00,671.0,WeatherDisplay:10.37,2013-02-15 21:01:00,
2013-02-15 13:06:00,71.6,42.5,30.12,SSE,159,4.6,4.6,35,0.00,OVC,SKC,0.00,668.0,WeatherDisplay:10.37,2013-02-15 21:06:00,
2013-02-15 13:11:00,72.0,43.6,30.12,South,176,5.0,5.0,36,0.00,OVC,SKC,0.00,664.0,WeatherDisplay:10.37,2013-02-15 21:11:00,
2013-02-15 13:16:00,72.4,41.7,30.12,South,174,3.5,3.5,33,0.00,OVC,SKC,0.00,663.0,WeatherDisplay:10.37,2013-02-15 21:16:00,
2013-02-15 13:21:00,72.8,41.2,30.12,SSW,192,4.6,4.6,32,0.00,OVC,SKC,0.00,657.0,WeatherDisplay:10.37,2013-02-15 21:21:00,
2013-02-15 13:26:00,72.3,43.8,30.12,SSW,200,5.0,5.0,36,0.00,OVC,SKC,0.00,652.0,WeatherDisplay:10.37,2013-02-15 21:26:00,
2013-02-15 13:31:00,71.0,44.1,30.12,SSW,202,4.6,4.6,38,0.00,OVC,SKC,0.00,647.0,WeatherDisplay:10.37,2013-02-15 21:31:00,
2013-02-15 13:36:00,70.5,44.3,30.12,SW,215,6.0,6.0,39,0.00,OVC,SKC,0.00,642.0,WeatherDisplay:10.37,2013-02-15 21:36:00,
2013-02-15 13:41:00,70.0,43.9,30.12,SW,230,4.6,4.6,39,0.00,OVC,SKC,0.00,638.0,WeatherDisplay:10.37,2013-02-15 21:41:00,
2013-02-15 13:46:00,70.1,44.6,30.12,SW,219,4.0,4.0,40,0.00,OVC,SKC,0.00,631.0,WeatherDisplay:10.37,2013-02-15 21:46:00,
2013-02-15 13:51:00,68.8,45.4,30.12,SW,217,6.9,6.9,43,0.00,OVC,SKC,0.00,624.0,WeatherDisplay:10.37,2013-02-15 21:51:00,
2013-02-15 13:56:00,68.5,45.1,30.12,SW,229,4.6,4.6,43,0.00,OVC,SKC,0.00,617.0,WeatherDisplay:10.37,2013-02-15 21:56:00,
2013-02-15 14:01:00,69.3,45.8,30.12,SW,214,4.6,4.6,43,0.00,OVC,SKC,0.00,608.0,WeatherDisplay:10.37,2013-02-15 22:01:00,
2013-02-15 14:06:00,69.9,46.4,30.11,SW,227,4.6,4.6,43,0.00,OVC,SKC,0.00,599.0,WeatherDisplay:10.37,2013-02-15 22:06:00,
2013-02-15 14:11:00,70.0,44.6,30.11,WSW,243,3.5,4.2,40,0.00,OVC,SKC,0.00,591.0,WeatherDisplay:10.37,2013-02-15 22:11:00,
2013-02-15 14:16:00,69.9,44.5,30.11,WSW,254,5.8,5.8,40,0.00,OVC,SKC,0.00,582.0,WeatherDisplay:10.37,2013-02-15 22:16:00,
2013-02-15 14:21:00,69.3,43.9,30.10,WSW,253,5.8,5.8,40,0.00,OVC,SKC,0.00,573.0,WeatherDisplay:10.37,2013-02-15 22:21:00,
2013-02-15 14:26:00,69.6,42.9,30.10,WSW,249,4.6,4.6,38,0.00,OVC,SKC,0.00,563.0,WeatherDisplay:10.37,2013-02-15 22:26:00,
2013-02-15 14:31:00,70.3,42.8,30.10,SW,227,5.8,5.8,37,0.00,OVC,SKC,0.00,554.0,WeatherDisplay:10.37,2013-02-15 22:31:00,
2013-02-15 14:36:00,70.5,43.0,30.10,WSW,246,4.6,4.6,37,0.00,OVC,SKC,0.00,543.0,WeatherDisplay:10.37,2013-02-15 22:36:00,
2013-02-15 14:41:00,70.8,42.5,30.10,SW,219,4.0,4.0,36,0.00,OVC,SKC,0.00,531.0,WeatherDisplay:10.37,2013-02-15 22:41:00,
2013-02-15 14:46:00,71.2,42.9,30.10,SW,219,5.0,5.0,36,0.00,OVC,SKC,0.00,520.0,WeatherDisplay:10.37,2013-02-15 22:46:00,
2013-02-15 14:51:00,71.1,42.0,30.10,SW,228,5.8,5.8,35,0.00,OVC,SKC,0.00,508.0,WeatherDisplay:10.37,2013-02-15 22:51:00,
2013-02-15 14:56:00,71.3,41.5,30.10,SW,221,4.0,4.0,34,0.00,OVC,SKC,0.00,499.0,WeatherDisplay:10.37,2013-02-15 22:56:00,
2013-02-15 15:02:00,71.8,41.1,30.10,SW,221,4.6,4.6,33,0.00,BKN,SKC,0.00,485.0,WeatherDisplay:10.37,2013-02-15 23:02:00,
2013-02-15 15:07:00,71.9,41.2,30.11,SW,227,4.0,4.0,33,0.00,FEW,SKC,0.00,473.0,WeatherDisplay:10.37,2013-02-15 23:07:00,
2013-02-15 15:12:00,71.6,41.0,30.11,SW,220,4.6,4.6,33,0.00,CLR,SKC,0.00,461.0,WeatherDisplay:10.37,2013-02-15 23:12:00,
2013-02-15 15:17:00,71.5,41.6,30.11,SW,223,4.6,4.6,34,0.00,CLR,SKC,0.00,446.0,WeatherDisplay:10.37,2013-02-15 23:17:00,
2013-02-15 15:22:00,71.6,41.0,30.11,SSW,212,4.6,4.6,33,0.00,CLR,SKC,0.00,432.0,WeatherDisplay:10.37,2013-02-15 23:22:00,
2013-02-15 15:27:00,71.3,40.7,30.11,SW,235,5.8,5.8,33,0.00,CLR,SKC,0.00,422.0,WeatherDisplay:10.37,2013-02-15 23:27:00,
2013-02-15 15:32:00,71.1,40.5,30.11,SW,234,5.8,5.8,33,0.00,CLR,SKC,0.00,408.0,WeatherDisplay:10.37,2013-02-15 23:32:00,
2013-02-15 15:37:00,70.9,40.3,30.11,SW,217,4.6,4.6,33,0.00,CLR,SKC,0.00,394.0,WeatherDisplay:10.37,2013-02-15 23:37:00,
2013-02-15 15:42:00,71.2,41.4,30.11,SW,221,5.0,5.0,34,0.00,CLR,SKC,0.00,380.0,WeatherDisplay:10.37,2013-02-15 23:42:00,
2013-02-15 15:47:00,71.4,42.3,30.11,WSW,253,6.0,6.0,35,0.00,CLR,SKC,0.00,364.0,WeatherDisplay:10.37,2013-02-15 23:47:00,
2013-02-15 15:52:00,71.0,41.2,30.10,SW,219,5.8,5.8,34,0.00,CLR,SKC,0.00,348.0,WeatherDisplay:10.37,2013-02-15 23:52:00,
2013-02-15 15:57:00,70.9,41.1,30.10,SW,232,4.6,4.6,34,0.00,CLR,SKC,0.00,334.0,WeatherDisplay:10.37,2013-02-15 23:57:00,
2013-02-15 16:02:00,71.1,40.5,30.10,SW,232,3.5,3.5,33,0.00,CLR,SKC,0.00,316.0,WeatherDisplay:10.37,2013-02-16 00:02:00,
2013-02-15 16:07:00,71.2,39.0,30.10,SW,236,4.6,4.6,31,0.00,CLR,SKC,0.00,304.0,WeatherDisplay:10.37,2013-02-16 00:07:00,
2013-02-15 16:12:00,70.9,38.7,30.10,WSW,243,4.6,4.6,31,0.00,CLR,SKC,0.00,288.0,WeatherDisplay:10.37,2013-02-16 00:12:00,
2013-02-15 16:17:00,71.3,39.1,30.10,WSW,246,3.5,3.5,31,0.00,CLR,SKC,0.00,272.0,WeatherDisplay:10.37,2013-02-16 00:17:00,
2013-02-15 16:22:00,71.4,38.3,30.10,WSW,245,3.5,3.5,30,0.00,CLR,SKC,0.00,257.0,WeatherDisplay:10.37,2013-02-16 00:22:00,
2013-02-15 16:27:00,71.6,38.5,30.10,WSW,257,3.5,3.5,30,0.00,CLR,SKC,0.00,241.0,WeatherDisplay:10.37,2013-02-16 00:27:00,
2013-02-15 16:32:00,71.7,37.7,30.10,WSW,256,3.5,3.5,29,0.00,CLR,SKC,0.00,225.0,WeatherDisplay:10.37,2013-02-16 00:32:00,
2013-02-15 16:37:00,71.7,37.7,30.09,WSW,250,2.3,2.3,29,0.00,CLR,SKC,0.00,207.0,WeatherDisplay:10.37,2013-02-16 00:37:00,
2013-02-15 16:42:00,71.8,36.9,30.09,WSW,242,4.6,4.6,28,0.00,FEW,SKC,0.00,193.0,WeatherDisplay:10.37,2013-02-16 00:42:00,
2013-02-15 16:47:00,71.6,36.8,30.09,SW,233,3.5,3.5,28,0.00,FEW,SKC,0.00,178.0,WeatherDisplay:10.37,2013-02-16 00:47:00,
2013-02-15 16:52:00,71.5,37.6,30.09,WSW,237,2.3,2.3,29,0.00,SCT,SKC,0.00,160.0,WeatherDisplay:10.37,2013-02-16 00:52:00,
2013-02-15 16:57:00,71.6,36.8,30.09,SW,221,2.3,2.3,28,0.00,BKN,SKC,0.00,144.0,WeatherDisplay:10.37,2013-02-16 00:57:00,
2013-02-15 17:02:00,71.7,38.6,30.09,SW,221,2.3,2.3,30,0.00,BKN,SKC,0.00,128.0,WeatherDisplay:10.37,2013-02-16 01:02:00,
2013-02-15 17:07:00,71.1,38.1,30.09,SW,220,4.0,4.0,30,0.00,BKN,SKC,0.00,111.0,WeatherDisplay:10.37,2013-02-16 01:07:00,
2013-02-15 17:12:00,70.5,38.4,30.09,SW,224,3.5,3.5,31,0.00,BKN,SKC,0.00,93.0,WeatherDisplay:10.37,2013-02-16 01:12:00,
2013-02-15 17:17:00,70.2,39.7,30.09,SW,224,3.5,3.5,33,0.00,BKN,SKC,0.00,76.0,WeatherDisplay:10.37,2013-02-16 01:17:00,
2013-02-15 17:22:00,69.7,40.1,30.09,WSW,246,4.6,4.6,34,0.00,BKN,SKC,0.00,63.0,WeatherDisplay:10.37,2013-02-16 01:22:00,
2013-02-15 17:27:00,69.2,40.4,30.09,West,268,5.0,5.0,35,0.00,BKN,SKC,0.00,40.0,WeatherDisplay:10.37,2013-02-16 01:27:00,
2013-02-15 17:32:00,68.6,38.3,30.09,WSW,255,5.8,5.8,33,0.00,OVC,SKC,0.00,18.0,WeatherDisplay:10.37,2013-02-16 01:32:00,
2013-02-15 17:37:00,68.3,40.3,30.09,WSW,241,3.5,3.5,36,0.00,OVC,SKC,0.00,12.0,WeatherDisplay:10.37,2013-02-16 01:37:00,
2013-02-15 17:42:00,67.8,40.6,30.09,WSW,241,1.2,1.2,37,0.00,OVC,SKC,0.00,9.0,WeatherDisplay:10.37,2013-02-16 01:42:00,
2013-02-15 17:47:00,67.4,41.6,30.09,WSW,241,0.0,0.0,39,0.00,OVC,SKC,0.00,7.0,WeatherDisplay:10.37,2013-02-16 01:47:00,
2013-02-15 17:52:00,66.8,43.6,30.10,WSW,241,0.0,0.0,43,0.00,OVC,SKC,0.00,0.0,WeatherDisplay:10.37,2013-02-16 01:52:00,
2013-02-15 17:57:00,65.9,43.4,30.10,WSW,241,0.0,0.0,44,0.00,OVC,SKC,0.00,0.0,WeatherDisplay:10.37,2013-02-16 01:57:00,
2013-02-15 18:02:00,64.9,44.2,30.10,WSW,241,0.0,0.0,47,0.00,,SKC,0.00,0.0,WeatherDisplay:10.37,2013-02-16 02:02:00,
2013-02-15 18:07:00,63.9,43.8,30.10,WSW,241,1.2,1.2,48,0.00,,SKC,0.00,0.0,WeatherDisplay:10.37,2013-02-16 02:07:00,
2013-02-15 18:12:00,63.4,43.9,30.10,WSW,241,0.0,0.0,49,0.00,,SKC,0.00,0.0,WeatherDisplay:10.37,2013-02-16 02:12:00,
2013-02-15 18:17:00,62.8,43.9,30.10,WSW,241,1.2,0.0,50,0.00,,SKC,0.00,0.0,WeatherDisplay:10.37,2013-02-16 02:17:00,
2013-02-15 18:22:00,62.4,43.5,30.10,WSW,241,0.0,0.0,50,0.00,,SKC,0.00,0.0,WeatherDisplay:10.37,2013-02-16 02:22:00,
2013-02-15 18:27:00,62.3,42.9,30.10,WSW,241,2.3,2.3,49,0.00,,SKC,0.00,0.0,WeatherDisplay:10.37,2013-02-16 02:27:00,
2013-02-15 18:32:00,62.3,42.9,30.10,WSW,241,0.0,0.0,49,0.00,,SKC,0.00,0.0,WeatherDisplay:10.37,2013-02-16 02:32:00,
2013-02-15 18:37:00,62.2,42.8,30.11,WSW,241,1.2,1.2,49,0.00,,SKC,0.00,0.0,WeatherDisplay:10.37,2013-02-16 02:37:00,
2013-02-15 18:42:00,62.1,42.7,30.11,WSW,241,1.2,1.2,49,0.00,,SKC,0.00,0.0,WeatherDisplay:10.37,2013-02-16 02:42:00,
2013-02-15 18:47:00,62.2,43.3,30.11,WSW,241,2.3,2.3,50,0.00,,SKC,0.00,0.0,WeatherDisplay:10.37,2013-02-16 02:47:00,
2013-02-15 18:52:00,62.0,43.1,30.11,WSW,241,3.5,3.5,50,0.00,,SKC,0.00,0.0,WeatherDisplay:10.37,2013-02-16 02:52:00,
2013-02-15 18:57:00,61.7,43.4,30.11,North,355,3.5,3.5,51,0.00,,SKC,0.00,0.0,WeatherDisplay:10.37,2013-02-16 02:57:00,
2013-02-15 19:03:00,61.3,43.5,30.11,North,355,4.0,4.0,52,0.00,,SKC,0.00,0.0,WeatherDisplay:10.37,2013-02-16 03:03:00,
2013-02-15 19:08:00,61.2,43.9,30.12,North,355,3.5,3.5,53,0.00,,SKC,0.00,0.0,WeatherDisplay:10.37,2013-02-16 03:08:00,
2013-02-15 19:13:00,60.8,43.6,30.12,North,355,2.3,2.3,53,0.00,,SKC,0.00,0.0,WeatherDisplay:10.37,2013-02-16 03:13:00,
2013-02-15 19:18:00,60.3,44.1,30.12,North,355,1.2,1.2,55,0.00,,SKC,0.00,0.0,WeatherDisplay:10.37,2013-02-16 03:18:00,
2013-02-15 19:23:00,59.8,44.1,30.12,North,355,4.0,4.0,56,0.00,,SKC,0.00,0.0,WeatherDisplay:10.37,2013-02-16 03:23:00,
2013-02-15 19:28:00,59.8,44.1,30.12,NE,38,4.6,4.6,56,0.00,,SKC,0.00,0.0,WeatherDisplay:10.37,2013-02-16 03:28:00,
2013-02-15 19:33:00,60.0,44.3,30.12,North,9,3.5,3.5,56,0.00,,SKC,0.00,0.0,WeatherDisplay:10.37,2013-02-16 03:33:00,
2013-02-15 19:38:00,60.0,44.3,30.12,NNE,22,4.6,4.6,56,0.00,,SKC,0.00,0.0,WeatherDisplay:10.37,2013-02-16 03:38:00,
2013-02-15 19:43:00,60.1,43.9,30.12,North,5,5.8,5.8,55,0.00,,SKC,0.00,0.0,WeatherDisplay:10.37,2013-02-16 03:43:00,
2013-02-15 19:48:00,59.7,43.5,30.12,NNE,32,4.0,4.0,55,0.00,,SKC,0.00,0.0,WeatherDisplay:10.37,2013-02-16 03:48:00,
2013-02-15 19:53:00,59.4,43.2,30.12,North,5,3.5,3.5,55,0.00,,SKC,0.00,0.0,WeatherDisplay:10.37,2013-02-16 03:53:00,
2013-02-15 19:58:00,59.3,43.1,30.12,North,5,4.0,4.0,55,0.00,,SKC,0.00,0.0,WeatherDisplay:10.37,2013-02-16 03:58:00,
2013-02-15 20:03:00,59.2,43.0,30.12,NNE,12,3.5,3.5,55,0.00,,SKC,0.00,0.0,WeatherDisplay:10.37,2013-02-16 04:03:00,
2013-02-15 20:08:00,59.3,42.6,30.13,NE,49,4.6,4.6,54,0.00,CLR,SKC,0.00,0.0,WeatherDisplay:10.37,2013-02-16 04:08:00,
2013-02-15 20:13:00,59.1,44.8,30.13,ENE,75,2.3,2.3,59,0.00,CLR,SKC,0.00,0.0,WeatherDisplay:10.37,2013-02-16 04:13:00,
2013-02-15 20:18:00,58.2,44.4,30.13,ENE,75,1.2,1.2,60,0.00,CLR,SKC,0.00,0.0,WeatherDisplay:10.37,2013-02-16 04:18:00,
2013-02-15 20:23:00,57.7,43.9,30.13,ENE,75,2.3,2.3,60,0.00,CLR,SKC,0.00,0.0,WeatherDisplay:10.37,2013-02-16 04:23:00,
2013-02-15 20:28:00,57.5,42.8,30.13,NE,44,3.5,3.5,58,0.00,CLR,SKC,0.00,0.0,WeatherDisplay:10.37,2013-02-16 04:28:00,
2013-02-15 20:33:00,57.4,42.3,30.13,NE,35,2.3,2.3,57,0.00,CLR,SKC,0.00,0.0,WeatherDisplay:10.37,2013-02-16 04:33:00,
2013-02-15 20:38:00,57.4,42.3,30.13,NE,35,3.5,3.5,57,0.00,CLR,SKC,0.00,0.0,WeatherDisplay:10.37,2013-02-16 04:38:00,
2013-02-15 20:43:00,57.2,42.1,30.13,NE,35,3.5,3.5,57,0.00,CLR,SKC,0.00,0.0,WeatherDisplay:10.37,2013-02-16 04:43:00,
2013-02-15 20:48:00,57.2,41.6,30.13,NE,35,3.5,3.5,56,0.00,CLR,SKC,0.00,0.0,WeatherDisplay:10.37,2013-02-16 04:48:00,
2013-02-15 20:53:00,57.1,42.0,30.13,NNE,15,4.6,4.6,57,0.00,CLR,SKC,0.00,0.0,WeatherDisplay:10.37,2013-02-16 04:53:00,
2013-02-15 20:58:00,56.8,42.2,30.13,NNE,15,3.5,3.5,58,0.00,CLR,SKC,0.00,0.0,WeatherDisplay:10.37,2013-02-16 04:58:00,
2013-02-15 21:00:00,56.7,42.1,30.13,NNE,15,2.0,3.0,58,0.00,CLR,SKC,0.00,0.0,WeatherDisplay:10.37,2013-02-16 05:00:00,
2013-02-15 21:05:00,56.3,42.1,30.13,North,360,3.5,3.5,59,0.00,CLR,SKC,0.00,0.0,WeatherDisplay:10.37,2013-02-16 05:05:00,
2013-02-15 21:10:00,56.0,42.3,30.13,North,360,3.5,3.5,60,0.00,,SKC,0.00,0.0,WeatherDisplay:10.37,2013-02-16 05:10:00,
2013-02-15 21:15:00,55.9,42.2,30.13,North,360,3.5,3.5,60,0.00,,SKC,0.00,0.0,WeatherDisplay:10.37,2013-02-16 05:15:00,
2013-02-15 21:20:00,55.7,42.0,30.13,NNW,346,4.6,4.6,60,0.00,,SKC,0.00,0.0,WeatherDisplay:10.37,2013-02-16 05:20:00,
2013-02-15 21:23:00,55.6,41.9,30.13,NNW,347,4.6,4.6,60,0.00,,SKC,0.00,0.0,WeatherDisplay:10.37,2013-02-16 05:23:00,
2013-02-15 21:28:00,55.6,41.9,30.13,NNW,348,4.6,4.6,60,0.00,,SKC,0.00,0.0,WeatherDisplay:10.37,2013-02-16 05:28:00,
2013-02-15 21:33:00,55.5,41.8,30.13,NNW,348,5.0,5.0,60,0.00,,SKC,0.00,0.0,WeatherDisplay:10.37,2013-02-16 05:33:00,
2013-02-15 21:38:00,55.6,41.5,30.13,North,355,6.9,6.9,59,0.00,,SKC,0.00,0.0,WeatherDisplay:10.37,2013-02-16 05:38:00,
2013-02-15 21:43:00,55.7,41.6,30.13,North,355,5.8,5.8,59,0.00,,SKC,0.00,0.0,WeatherDisplay:10.37,2013-02-16 05:43:00,
2013-02-15 21:48:00,55.8,41.7,30.13,North,5,3.5,4.0,59,0.00,,SKC,0.00,0.0,WeatherDisplay:10.37,2013-02-16 05:48:00,
2013-02-15 21:53:00,56.0,41.9,30.13,NNE,15,4.6,4.6,59,0.00,,SKC,0.00,0.0,WeatherDisplay:10.37,2013-02-16 05:53:00,
2013-02-15 21:58:00,56.0,41.9,30.13,North,9,5.8,5.8,59,0.00,,SKC,0.00,0.0,WeatherDisplay:10.37,2013-02-16 05:58:00,
2013-02-15 22:03:00,55.8,42.1,30.13,NNW,346,4.0,4.0,60,0.00,,SKC,0.00,0.0,WeatherDisplay:10.37,2013-02-16 06:03:00,
2013-02-15 22:08:00,55.6,42.4,30.13,North,360,6.9,6.9,61,0.00,,SKC,0.00,0.0,WeatherDisplay:10.37,2013-02-16 06:08:00,
2013-02-15 22:13:00,55.7,42.0,30.13,North,5,8.1,8.1,60,0.00,,SKC,0.00,0.0,WeatherDisplay:10.37,2013-02-16 06:13:00,
2013-02-15 22:18:00,55.7,42.0,30.13,North,5,5.8,5.8,60,0.00,,SKC,0.00,0.0,WeatherDisplay:10.37,2013-02-16 06:18:00,
2013-02-15 22:23:00,55.5,41.8,30.13,North,355,4.6,4.6,60,0.00,,SKC,0.00,0.0,WeatherDisplay:10.37,2013-02-16 06:23:00,
2013-02-15 22:28:00,55.2,42.0,30.13,North,360,6.0,6.0,61,0.00,,SKC,0.00,0.0,WeatherDisplay:10.37,2013-02-16 06:28:00,
2013-02-15 22:33:00,55.3,41.6,30.13,North,5,6.9,6.9,60,0.00,,SKC,0.00,0.0,WeatherDisplay:10.37,2013-02-16 06:33:00,
2013-02-15 22:38:00,55.7,41.6,30.13,NNE,13,6.9,6.9,59,0.00,,SKC,0.00,0.0,WeatherDisplay:10.37,2013-02-16 06:38:00,
2013-02-15 22:43:00,55.8,41.7,30.13,North,360,6.9,6.9,59,0.00,,SKC,0.00,0.0,WeatherDisplay:10.37,2013-02-16 06:43:00,
2013-02-15 22:48:00,55.6,41.5,30.13,North,11,6.9,6.9,59,0.00,,SKC,0.00,0.0,WeatherDisplay:10.37,2013-02-16 06:48:00,
2013-02-15 22:53:00,55.4,41.3,30.13,North,355,6.0,6.0,59,0.00,,SKC,0.00,0.0,WeatherDisplay:10.37,2013-02-16 06:53:00,
2013-02-15 22:58:00,55.3,41.6,30.13,NNE,15,5.8,5.8,60,0.00,,SKC,0.00,0.0,WeatherDisplay:10.37,2013-02-16 06:58:00,
2013-02-15 23:03:00,55.3,41.6,30.13,NNW,336,5.8,5.8,60,0.00,,SKC,0.00,0.0,WeatherDisplay:10.37,2013-02-16 07:03:00,
2013-02-15 23:08:00,54.9,41.7,30.13,North,360,4.6,4.6,61,0.00,,SKC,0.00,0.0,WeatherDisplay:10.37,2013-02-16 07:08:00,
2013-02-15 23:13:00,54.7,41.5,30.13,North,355,5.0,5.0,61,0.00,,SKC,0.00,0.0,WeatherDisplay:10.37,2013-02-16 07:13:00,
2013-02-15 23:18:00,54.5,41.7,30.13,North,360,5.8,5.8,62,0.00,,SKC,0.00,0.0,WeatherDisplay:10.37,2013-02-16 07:18:00,
2013-02-15 23:23:00,54.4,41.6,30.13,North,5,4.6,4.6,62,0.00,,SKC,0.00,0.0,WeatherDisplay:10.37,2013-02-16 07:23:00,
2013-02-15 23:28:00,54.5,41.7,30.13,North,350,5.8,5.8,62,0.00,,SKC,0.00,0.0,WeatherDisplay:10.37,2013-02-16 07:28:00,
2013-02-15 23:33:00,54.3,41.6,30.13,North,355,4.6,4.6,62,0.00,,SKC,0.00,0.0,WeatherDisplay:10.37,2013-02-16 07:33:00,
2013-02-15 23:38:00,54.2,41.5,30.13,North,360,5.0,5.0,62,0.00,,SKC,0.00,0.0,WeatherDisplay:10.37,2013-02-16 07:38:00,
2013-02-15 23:43:00,54.1,41.4,30.13,North,11,4.6,4.6,62,0.00,,SKC,0.00,0.0,WeatherDisplay:10.37,2013-02-16 07:43:00,
2013-02-15 23:48:00,53.7,41.4,30.13,North,11,4.0,4.0,63,0.00,,SKC,0.00,0.0,WeatherDisplay:10.37,2013-02-16 07:48:00,
2013-02-15 23:53:00,53.8,41.5,30.12,NNW,342,6.9,6.9,63,0.00,,SKC,0.00,0.0,WeatherDisplay:10.37,2013-02-16 07:53:00,
2013-02-15 23:58:00,53.8,41.5,30.12,NNE,14,4.6,4.6,63,0.00,,SKC,0.00,0.0,WeatherDisplay:10.37,2013-02-16 07:58:00,